Time;durP1;ratioP1;P1;durP2;ratioP2;P2;SDS_P1;SDS_P2;PMS_P1;PMS_P2;Temp;Humidity;BMP_temperature;BMP_pressure;BME280_temperature;BME280_humidity;BME280_pressure;Samples;Min_cycle;Max_cycle;Signal;HPM_P1;HPM_P2
2023/03/06 00:01:16;;;;;;;6.72;2.78;;;;;;;0.47;100.00;97514.38;2550576;29;20054;-83
2023/03/06 00:02:32;;;;;;;5.18;2.60;;;;;;;0.65;100.00;97508.31;2552704;29;20138;-83
2023/03/06 00:03:47;;;;;;;3.85;2.40;;;;;;;0.68;100.00;97504.00;2551629;29;20075;-84
2023/03/06 00:05:04;;;;;;;5.18;2.30;;;;;;;0.30;100.00;97510.13;2550546;28;20075;-83
2023/03/06 00:06:20;;;;;;;6.85;2.63;;;;;;;0.37;100.00;97508.41;2552274;29;20051;-83
2023/03/06 00:07:36;;;;;;;4.60;2.58;;;;;;;0.32;100.00;97512.69;2550371;29;20500;-86
2023/03/06 00:08:51;;;;;;;5.82;2.55;;;;;;;0.43;100.00;97512.69;2550913;29;20047;-82
2023/03/06 00:10:11;;;;;;;5.78;2.65;;;;;;;0.56;100.00;97504.91;2550832;29;20134;-86
2023/03/06 00:11:27;;;;;;;5.57;2.53;;;;;;;0.26;100.00;97506.69;2551171;29;20044;-83
2023/03/06 00:12:42;;;;;;;7.25;2.75;;;;;;;0.59;100.00;97509.19;2552250;29;20050;-82
2023/03/06 00:13:58;;;;;;;5.10;2.88;;;;;;;0.25;100.00;97507.56;2550606;29;20051;-83
2023/03/06 00:15:14;;;;;;;3.80;2.20;;;;;;;0.28;100.00;97510.13;2550768;29;20599;-89
2023/03/06 00:16:29;;;;;;;5.50;3.20;;;;;;;0.50;100.00;97506.63;2551717;29;20135;-83
2023/03/06 00:17:45;;;;;;;6.72;3.33;;;;;;;0.65;100.00;97505.75;2550036;29;20477;-82
2023/03/06 00:19:00;;;;;;;5.22;2.72;;;;;;;0.75;100.00;97507.41;2550336;29;20055;-84
2023/03/06 00:20:17;;;;;;;6.47;2.72;;;;;;;0.72;100.00;97512.56;2551219;29;20055;-86
2023/03/06 00:21:32;;;;;;;5.03;2.40;;;;;;;0.74;100.00;97503.09;2552027;28;20051;-83
2023/03/06 00:22:48;;;;;;;5.80;2.70;;;;;;;0.73;100.00;97503.13;2550857;29;20047;-82
2023/03/06 00:24:04;;;;;;;5.07;2.58;;;;;;;0.66;100.00;97503.13;2552729;28;20130;-84
2023/03/06 00:25:20;;;;;;;4.18;2.38;;;;;;;0.61;100.00;97499.72;2551637;29;20418;-82
2023/03/06 00:26:36;;;;;;;5.13;2.78;;;;;;;0.30;100.00;97509.25;2550698;29;20047;-83
2023/03/06 00:27:52;;;;;;;5.68;3.00;;;;;;;0.01;100.00;97513.59;2551736;29;20054;-82
2023/03/06 00:29:07;;;;;;;6.65;2.95;;;;;;;0.20;100.00;97498.13;2550921;29;20585;-81
2023/03/06 00:30:24;;;;;;;6.82;2.80;;;;;;;0.18;100.00;97502.41;2550388;29;20198;-81
2023/03/06 00:31:39;;;;;;;7.57;2.75;;;;;;;-0.09;100.00;97499.00;2552094;29;20089;-83
2023/03/06 00:32:55;;;;;;;5.90;3.17;;;;;;;-0.08;100.00;97496.41;2552982;28;20063;-82
2023/03/06 00:34:11;;;;;;;8.60;2.65;;;;;;;-0.12;100.00;97496.44;2551960;29;20442;-84
2023/03/06 00:35:26;;;;;;;7.03;2.97;;;;;;;-0.21;100.00;97493.00;2551895;29;20051;-83
2023/03/06 00:36:42;;;;;;;7.50;3.03;;;;;;;-0.08;100.00;97495.59;2552155;28;20996;-82
2023/03/06 00:37:58;;;;;;;5.78;2.72;;;;;;;-0.33;100.00;97493.88;2553068;29;20063;-84
2023/03/06 00:39:14;;;;;;;8.20;2.90;;;;;;;-0.20;100.00;97491.31;2551642;29;20043;-85
2023/03/06 00:40:29;;;;;;;6.50;2.70;;;;;;;-0.03;100.00;97491.28;2552025;29;20077;-87
2023/03/06 00:41:45;;;;;;;8.63;3.10;;;;;;;0.07;100.00;97489.53;2551282;29;20569;-84
2023/03/06 00:43:01;;;;;;;11.55;3.38;;;;;;;0.37;100.00;97486.06;2550672;29;20331;-84
2023/03/06 00:44:16;;;;;;;7.43;3.97;;;;;;;0.51;100.00;97483.47;2550842;29;20052;-85
2023/03/06 00:45:32;;;;;;;8.70;3.50;;;;;;;0.20;100.00;97487.81;2552070;29;20543;-84
2023/03/06 00:46:47;;;;;;;7.28;3.10;;;;;;;0.11;100.00;97488.69;2550669;29;20056;-83
2023/03/06 00:48:03;;;;;;;5.22;2.65;;;;;;;0.18;100.00;97490.38;2549945;29;20044;-83
2023/03/06 00:49:20;;;;;;;6.20;3.05;;;;;;;-0.10;100.00;97477.56;2552025;29;20058;-88
2023/03/06 00:50:35;;;;;;;6.35;2.63;;;;;;;0.27;100.00;97479.22;2551906;29;20079;-83
2023/03/06 00:51:51;;;;;;;5.82;2.63;;;;;;;0.39;100.00;97484.34;2550876;29;20066;-83
2023/03/06 00:53:07;;;;;;;8.93;3.47;;;;;;;0.46;100.00;97472.28;2550915;29;20055;-83
2023/03/06 00:54:22;;;;;;;7.60;2.85;;;;;;;0.31;100.00;97480.94;2552826;29;20525;-84
2023/03/06 00:55:38;;;;;;;6.18;3.22;;;;;;;0.38;100.00;97479.22;2550673;29;20047;-83
2023/03/06 00:56:53;;;;;;;4.55;2.53;;;;;;;0.26;100.00;97473.22;2551827;29;20075;-83
2023/03/06 00:58:09;;;;;;;5.05;2.35;;;;;;;0.36;100.00;97471.47;2552201;29;20106;-83
2023/03/06 00:59:26;;;;;;;5.68;2.60;;;;;;;0.42;100.00;97468.03;2551781;29;20051;-88
2023/03/06 01:00:43;;;;;;;4.93;2.50;;;;;;;-0.07;100.00;97472.44;2551819;29;20059;-85
2023/03/06 01:01:59;;;;;;;4.85;2.20;;;;;;;0.06;100.00;97473.25;2550278;29;20051;-83
2023/03/06 01:03:14;;;;;;;6.30;3.00;;;;;;;0.03;100.00;97465.56;2552572;29;20058;-83
2023/03/06 01:04:30;;;;;;;6.32;2.58;;;;;;;0.07;100.00;97467.25;2552540;29;20052;-83
2023/03/06 01:05:46;;;;;;;4.13;2.50;;;;;;;-0.18;100.00;97464.69;2551505;29;20055;-84
2023/03/06 01:07:02;;;;;;;5.45;2.70;;;;;;;0.02;100.00;97462.97;2552060;29;20123;-83
2023/03/06 01:08:17;;;;;;;6.07;2.83;;;;;;;0.05;100.00;97468.09;2552022;29;20059;-84
2023/03/06 01:09:33;;;;;;;5.82;2.50;;;;;;;0.02;100.00;97457.81;2552130;28;20051;-84
2023/03/06 01:10:49;;;;;;;6.57;2.53;;;;;;;-0.50;100.00;97457.00;2551657;28;20047;-83
2023/03/06 01:12:05;;;;;;;6.03;2.88;;;;;;;-0.25;100.00;97457.88;2550962;29;20464;-85
2023/03/06 01:13:20;;;;;;;8.07;3.17;;;;;;;-0.27;100.00;97462.16;2551720;28;20047;-83
2023/03/06 01:14:36;;;;;;;5.28;2.30;;;;;;;-0.25;100.00;97454.41;2549970;29;20048;-82
2023/03/06 01:15:52;;;;;;;4.20;2.28;;;;;;;-0.05;100.00;97460.41;2552983;29;20059;-81
2023/03/06 01:17:07;;;;;;;4.65;2.60;;;;;;;0.01;100.00;97450.97;2550558;29;20110;-81
2023/03/06 01:18:23;;;;;;;5.10;2.80;;;;;;;-0.08;100.00;97452.69;2550563;29;20051;-84
2023/03/06 01:19:38;;;;;;;7.43;3.00;;;;;;;-0.07;100.00;97458.69;2551441;29;20055;-81
2023/03/06 01:20:54;;;;;;;6.05;2.55;;;;;;;-0.48;100.00;97445.03;2550865;29;20407;-84
2023/03/06 01:22:09;;;;;;;5.68;2.42;;;;;;;-0.40;100.00;97445.00;2552024;29;20589;-83
2023/03/06 01:23:25;;;;;;;5.40;2.70;;;;;;;-0.78;100.00;97449.25;2550386;29;20066;-83
2023/03/06 01:24:41;;;;;;;7.20;2.95;;;;;;;-0.89;100.00;97441.53;2550111;29;20055;-85
2023/03/06 01:25:57;;;;;;;6.35;2.83;;;;;;;-1.11;100.00;97449.22;2552692;29;20109;-83
2023/03/06 01:27:13;;;;;;;6.65;3.08;;;;;;;-1.01;100.00;97444.97;2550847;29;20075;-83
2023/03/06 01:28:29;;;;;;;5.35;2.72;;;;;;;-1.19;100.00;97443.19;2552121;29;20055;-83
2023/03/06 01:29:44;;;;;;;5.40;2.75;;;;;;;-0.88;100.00;97441.56;2549753;29;20051;-83
2023/03/06 01:31:00;;;;;;;8.63;2.78;;;;;;;-1.01;100.00;97443.22;2550062;29;20438;-85
2023/03/06 01:32:16;;;;;;;8.82;3.20;;;;;;;-0.91;100.00;97435.53;2551642;29;20047;-82
2023/03/06 01:33:32;;;;;;;5.45;2.22;;;;;;;-0.88;100.00;97431.28;2549768;29;20174;-87
2023/03/06 01:34:48;;;;;;;9.25;3.50;;;;;;;-0.68;100.00;97433.00;2550111;29;20463;-83
2023/03/06 01:36:10;;;;;;;4.40;2.17;;;;;;;-0.85;100.00;97430.41;2552748;29;20051;-83
2023/03/06 01:37:25;;;;;;;5.78;2.67;;;;;;;-0.93;100.00;97432.97;2550454;29;20418;-83
2023/03/06 01:38:41;;;;;;;4.90;1.98;;;;;;;-1.01;100.00;97426.97;2550472;29;20051;-83
2023/03/06 01:39:56;;;;;;;5.28;3.03;;;;;;;-0.63;100.00;97423.59;2552476;29;20425;-85
2023/03/06 01:41:14;;;;;;;6.68;3.42;;;;;;;-0.42;100.00;97429.56;2549968;29;20058;-85
2023/03/06 01:42:30;;;;;;;5.53;2.85;;;;;;;-0.52;100.00;97430.44;2549846;29;20147;-83
2023/03/06 01:43:46;;;;;;;5.82;3.10;;;;;;;-0.61;100.00;97429.59;2551466;29;20320;-83
2023/03/06 01:45:27;;;;;;;5.57;2.92;;;;;;;-0.51;100.00;97432.13;2552217;29;20059;-84
2023/03/06 01:46:44;;;;;;;9.82;3.30;;;;;;;-0.43;100.00;97431.28;2551628;29;20306;-83
2023/03/06 01:47:59;;;;;;;5.07;3.05;;;;;;;-0.75;100.00;97429.56;2550687;29;20089;-82
2023/03/06 01:49:29;;;;;;;5.85;2.88;;;;;;;-0.64;100.00;97421.00;2551502;29;20200;-82
2023/03/06 01:50:45;;;;;;;6.97;3.25;;;;;;;-0.66;100.00;97417.59;2550299;29;20118;-82
2023/03/06 01:52:14;;;;;;;7.05;2.88;;;;;;;-0.86;100.00;97426.13;2549307;29;20051;-83
2023/03/06 01:53:30;;;;;;;7.43;2.63;;;;;;;-0.89;100.00;97426.13;2549377;29;20474;-86
2023/03/06 01:54:58;;;;;;;8.10;3.25;;;;;;;-0.74;100.00;97418.44;2551146;29;20101;-82
2023/03/06 01:56:14;;;;;;;7.43;3.10;;;;;;;-0.61;100.00;97421.00;2551475;29;20082;-83
2023/03/06 01:57:34;;;;;;;8.35;3.38;;;;;;;-0.60;100.00;97423.59;2549464;29;20055;-82
2023/03/06 01:58:50;;;;;;;6.55;3.00;;;;;;;-0.91;100.00;97422.69;2551208;29;20079;-84
2023/03/06 02:00:13;;;;;;;8.25;4.38;;;;;;;-0.78;100.00;97416.72;2550880;29;20502;-83
2023/03/06 02:01:31;;;;;;;6.15;2.92;;;;;;;-1.08;100.00;97417.53;2551353;29;20126;-82
2023/03/06 02:02:52;;;;;;;7.05;3.35;;;;;;;-0.67;100.00;97413.31;2552592;29;20093;-81
2023/03/06 02:04:09;;;;;;;5.67;3.03;;;;;;;-0.62;100.00;97412.44;2551239;29;20178;-85
2023/03/06 02:05:25;;;;;;;9.65;3.08;;;;;;;-1.06;100.00;97414.13;2550319;29;20473;-86
2023/03/06 02:06:44;;;;;;;6.93;3.03;;;;;;;-0.87;100.00;97414.13;2551591;29;20135;-83
2023/03/06 02:08:01;;;;;;;7.88;3.50;;;;;;;-0.74;100.00;97408.16;2551979;29;20138;-84
2023/03/06 02:09:17;;;;;;;8.73;3.33;;;;;;;-0.73;100.00;97406.44;2552120;29;20051;-83
2023/03/06 02:10:33;;;;;;;8.32;3.63;;;;;;;-0.49;100.00;97407.28;2550246;29;20608;-84
2023/03/06 02:11:49;;;;;;;9.15;3.70;;;;;;;-0.26;100.00;97408.97;2551199;29;20108;-84
2023/03/06 02:13:04;;;;;;;7.68;3.38;;;;;;;-0.26;100.00;97404.72;2551175;29;20622;-85
2023/03/06 02:14:20;;;;;;;10.57;4.28;;;;;;;-0.30;100.00;97400.41;2550378;29;20055;-82
2023/03/06 02:15:36;;;;;;;7.28;3.45;;;;;;;-0.52;100.00;97405.59;2552320;29;20047;-84
2023/03/06 02:16:52;;;;;;;8.65;3.67;;;;;;;-0.60;100.00;97407.28;2550307;29;20056;-81
2023/03/06 02:18:07;;;;;;;8.05;3.65;;;;;;;-0.83;100.00;97405.59;2551448;28;20183;-84
2023/03/06 02:19:41;;;;;;;11.05;4.15;;;;;;;-0.67;100.00;97401.28;2551766;29;20399;-84
2023/03/06 02:21:01;;;;;;;6.10;3.13;;;;;;;-1.06;100.00;97398.69;2550424;29;20083;-82
2023/03/06 02:22:16;;;;;;;6.82;3.20;;;;;;;-1.00;100.00;97393.56;2552009;29;20655;-87
2023/03/06 02:23:50;;;;;;;10.82;3.90;;;;;;;-0.89;100.00;97396.16;2554138;28;20054;-82
2023/03/06 02:25:27;;;;;;;7.95;3.83;;;;;;;-0.94;100.00;97395.28;2552734;29;20055;-82
2023/03/06 02:26:45;;;;;;;9.05;3.90;;;;;;;-0.94;100.00;97394.44;2555523;29;20515;-82
2023/03/06 02:28:01;;;;;;;10.05;4.20;;;;;;;-0.87;100.00;97394.44;2554581;29;20062;-82
2023/03/06 02:29:22;;;;;;;9.07;3.65;;;;;;;-1.12;100.00;97390.97;2554073;29;20043;-83
2023/03/06 02:30:40;;;;;;;8.68;3.60;;;;;;;-0.80;100.00;97385.03;2553838;29;20420;-83
2023/03/06 02:31:55;;;;;;;9.55;3.83;;;;;;;-0.61;100.00;97385.00;2553433;29;20240;-82
2023/03/06 02:33:16;;;;;;;7.57;3.75;;;;;;;-0.51;100.00;97386.72;2554120;29;20604;-85
2023/03/06 02:34:37;;;;;;;7.72;3.88;;;;;;;-0.38;100.00;97384.16;2554084;29;20063;-81
2023/03/06 02:35:59;;;;;;;6.85;3.38;;;;;;;-0.39;100.00;97374.72;2553441;29;20142;-83
2023/03/06 02:37:15;;;;;;;11.02;4.05;;;;;;;-0.84;100.00;97382.44;2552296;29;20055;-82
2023/03/06 02:38:35;;;;;;;9.88;3.83;;;;;;;-1.14;100.00;97384.97;2554478;29;20087;-81
2023/03/06 02:39:57;;;;;;;9.05;3.72;;;;;;;-1.23;100.00;97383.25;2553536;29;20187;-82
2023/03/06 02:41:13;;;;;;;7.80;3.85;;;;;;;-1.32;100.00;97385.81;2552757;29;20051;-81
2023/03/06 02:42:29;;;;;;;11.23;4.63;;;;;;;-1.32;100.00;97375.56;2552457;28;20142;-82
2023/03/06 02:43:46;;;;;;;10.25;4.28;;;;;;;-1.27;100.00;97381.53;2554269;29;20051;-81
2023/03/06 02:45:05;;;;;;;9.30;4.07;;;;;;;-1.13;100.00;97384.13;2555529;29;20080;-81
2023/03/06 02:46:21;;;;;;;8.80;3.33;;;;;;;-0.79;100.00;97379.03;2553124;29;20883;-81
2023/03/06 02:47:37;;;;;;;10.25;4.07;;;;;;;-0.58;100.00;97382.44;2553902;28;20113;-82
2023/03/06 02:48:52;;;;;;;10.65;4.28;;;;;;;-0.69;100.00;97381.59;2554385;29;20052;-82
2023/03/06 02:50:09;;;;;;;11.10;4.05;;;;;;;-0.88;100.00;97382.44;2552323;29;20054;-82
2023/03/06 02:51:25;;;;;;;8.73;3.63;;;;;;;-0.94;100.00;97379.03;2553590;29;20054;-84
2023/03/06 02:52:40;;;;;;;8.45;3.78;;;;;;;-0.83;100.00;97382.47;2554414;29;20479;-82
2023/03/06 02:53:56;;;;;;;10.00;4.30;;;;;;;-0.76;100.00;97379.03;2552198;29;20079;-85
2023/03/06 02:55:11;;;;;;;11.13;4.20;;;;;;;-0.93;100.00;97384.16;2554529;29;20063;-83
2023/03/06 02:56:27;;;;;;;9.10;4.00;;;;;;;-0.84;100.00;97370.44;2552076;29;20051;-83
2023/03/06 02:57:43;;;;;;;8.85;3.70;;;;;;;-1.03;100.00;97372.16;2552882;29;20150;-84
2023/03/06 02:58:58;;;;;;;11.07;4.43;;;;;;;-1.06;100.00;97370.44;2553434;29;20080;-83
2023/03/06 03:00:16;;;;;;;10.60;3.88;;;;;;;-1.08;100.00;97364.44;2553986;29;20400;-83
2023/03/06 03:01:32;;;;;;;7.55;4.15;;;;;;;-1.40;100.00;97372.94;2553955;28;20133;-82
2023/03/06 03:02:48;;;;;;;14.73;4.97;;;;;;;-1.38;100.00;97366.13;2555123;28;21056;-83
2023/03/06 03:04:04;;;;;;;11.50;4.50;;;;;;;-1.13;100.00;97366.13;2553197;29;20051;-86
2023/03/06 03:05:19;;;;;;;11.45;4.70;;;;;;;-1.04;100.00;97376.44;2554092;29;20082;-83
2023/03/06 03:06:35;;;;;;;10.90;4.60;;;;;;;-0.98;100.00;97372.16;2553449;29;20479;-83
2023/03/06 03:07:51;;;;;;;12.70;4.63;;;;;;;-0.76;100.00;97368.75;2554509;28;20051;-84
2023/03/06 03:09:07;;;;;;;11.52;5.10;;;;;;;-0.79;100.00;97368.75;2553424;29;20048;-83
2023/03/06 03:10:23;;;;;;;10.35;3.97;;;;;;;-0.73;100.00;97361.03;2543884;29;20058;-83
2023/03/06 03:11:39;;;;;;;8.80;4.22;;;;;;;-0.72;100.00;97362.72;2546786;29;20094;-84
2023/03/06 03:12:55;;;;;;;7.90;4.00;;;;;;;-0.80;100.00;97366.16;2553687;28;20130;-86
2023/03/06 03:14:11;;;;;;;10.43;4.63;;;;;;;-0.80;100.00;97356.75;2553994;29;20403;-82
2023/03/06 03:15:27;;;;;;;8.98;3.75;;;;;;;-0.77;100.00;97361.03;2552296;29;20058;-82
2023/03/06 03:16:44;;;;;;;10.40;4.20;;;;;;;-0.84;100.00;97362.72;2553732;29;20495;-82
2023/03/06 03:17:59;;;;;;;9.77;4.15;;;;;;;-0.78;100.00;97357.59;2551980;29;20534;-83
2023/03/06 03:19:15;;;;;;;8.10;3.97;;;;;;;-1.20;100.00;97360.13;2553228;29;20153;-82
2023/03/06 03:20:31;;;;;;;12.02;4.43;;;;;;;-1.33;100.00;97354.13;2554980;29;20485;-82
2023/03/06 03:21:46;;;;;;;11.18;4.13;;;;;;;-1.48;100.00;97357.50;2554772;29;20083;-83
2023/03/06 03:23:02;;;;;;;8.82;3.72;;;;;;;-1.75;100.00;97350.59;2553330;29;20086;-82
2023/03/06 03:24:18;;;;;;;8.00;3.30;;;;;;;-1.92;100.00;97353.97;2554036;29;20066;-85
2023/03/06 03:25:33;;;;;;;7.82;3.28;;;;;;;-2.07;100.00;97348.78;2554222;29;20055;-82
2023/03/06 03:26:49;;;;;;;11.90;4.43;;;;;;;-2.02;100.00;97355.66;2553856;29;21094;-82
2023/03/06 03:28:04;;;;;;;8.27;3.78;;;;;;;-1.94;100.00;97352.25;2553710;29;20051;-85
2023/03/06 03:29:21;;;;;;;12.55;4.10;;;;;;;-2.06;100.00;97345.34;2552188;28;20055;-84
2023/03/06 03:30:39;;;;;;;8.23;3.45;;;;;;;-2.07;100.00;97346.22;2552586;29;20138;-82
2023/03/06 03:31:54;;;;;;;8.57;3.90;;;;;;;-1.80;100.00;97344.59;2553431;29;20188;-82
2023/03/06 03:33:10;;;;;;;10.55;4.38;;;;;;;-1.69;100.00;97340.34;2553366;28;20055;-83
2023/03/06 03:34:26;;;;;;;10.93;4.65;;;;;;;-1.49;100.00;97342.13;2549634;29;20134;-82
2023/03/06 03:35:42;;;;;;;9.13;3.50;;;;;;;-1.80;100.00;97342.03;2553219;29;20225;-88
2023/03/06 03:36:57;;;;;;;13.05;4.65;;;;;;;-1.47;100.00;97345.53;2552134;29;20415;-85
2023/03/06 03:38:13;;;;;;;9.90;4.10;;;;;;;-1.30;100.00;97338.72;2552294;29;20134;-82
2023/03/06 03:39:29;;;;;;;13.02;4.78;;;;;;;-1.12;100.00;97338.75;2553264;29;20051;-84
2023/03/06 03:40:44;;;;;;;14.13;4.00;;;;;;;-1.07;100.00;97339.59;2553652;29;20047;-83
2023/03/06 03:42:00;;;;;;;9.13;4.28;;;;;;;-1.27;100.00;97337.88;2551095;29;20196;-83
2023/03/06 03:43:16;;;;;;;10.30;3.92;;;;;;;-1.42;100.00;97339.56;2552829;29;20066;-83
2023/03/06 03:44:32;;;;;;;13.52;4.18;;;;;;;-1.41;100.00;97340.41;2550875;29;20171;-85
2023/03/06 03:45:48;;;;;;;8.82;4.05;;;;;;;-1.36;100.00;97336.16;2551386;29;20062;-83
2023/03/06 03:47:04;;;;;;;10.38;3.63;;;;;;;-1.54;100.00;97328.41;2552620;29;20378;-83
2023/03/06 03:48:19;;;;;;;11.75;4.38;;;;;;;-1.38;100.00;97335.31;2550776;29;20605;-83
2023/03/06 03:49:35;;;;;;;9.27;4.28;;;;;;;-1.38;100.00;97334.44;2553015;29;20062;-82
2023/03/06 03:50:50;;;;;;;12.10;4.35;;;;;;;-1.29;100.00;97334.47;2552261;29;20471;-82
2023/03/06 03:52:06;;;;;;;9.98;4.38;;;;;;;-1.40;100.00;97331.84;2551729;29;20102;-82
2023/03/06 03:53:22;;;;;;;9.32;3.60;;;;;;;-1.36;100.00;97325.91;2551529;29;20062;-83
2023/03/06 03:54:38;;;;;;;11.90;4.53;;;;;;;-1.20;100.00;97333.63;2552991;28;20051;-84
2023/03/06 03:55:53;;;;;;;10.48;4.10;;;;;;;-1.29;100.00;97322.47;2552113;29;20138;-83
2023/03/06 03:57:09;;;;;;;10.60;4.03;;;;;;;-1.63;100.00;97322.41;2551425;29;20940;-83
2023/03/06 03:58:24;;;;;;;14.13;4.68;;;;;;;-1.80;100.00;97316.38;2550758;29;20052;-86
2023/03/06 03:59:40;;;;;;;12.50;5.03;;;;;;;-1.72;100.00;97319.81;2552703;29;20083;-83
2023/03/06 04:00:56;;;;;;;11.52;4.07;;;;;;;-1.93;100.00;97316.34;2551649;29;20063;-82
2023/03/06 04:02:11;;;;;;;11.05;4.18;;;;;;;-1.87;100.00;97316.34;2550771;29;20048;-81
2023/03/06 04:03:27;;;;;;;11.05;4.45;;;;;;;-2.29;100.00;97316.19;2551106;29;20411;-84
2023/03/06 04:04:43;;;;;;;12.55;4.45;;;;;;;-2.24;100.00;97316.19;2552876;28;20062;-86
2023/03/06 04:05:59;;;;;;;9.52;3.97;;;;;;;-2.07;100.00;97315.44;2552957;29;20059;-84
2023/03/06 04:07:15;;;;;;;11.85;3.88;;;;;;;-1.75;100.00;97310.38;2542273;29;20051;-83
2023/03/06 04:08:30;;;;;;;10.50;4.63;;;;;;;-1.84;100.00;97315.50;2545943;29;20055;-83
2023/03/06 04:09:46;;;;;;;10.45;4.70;;;;;;;-1.70;100.00;97307.84;2551175;29;20063;-83
2023/03/06 04:11:02;;;;;;;12.73;4.03;;;;;;;-1.89;100.00;97315.50;2552391;29;20059;-83
2023/03/06 04:12:18;;;;;;;12.23;4.78;;;;;;;-1.93;100.00;97311.22;2551474;29;20055;-82
2023/03/06 04:13:34;;;;;;;13.30;4.30;;;;;;;-1.69;100.00;97316.41;2551228;29;20063;-83
2023/03/06 04:14:49;;;;;;;9.38;4.15;;;;;;;-1.64;100.00;97317.25;2550536;29;20059;-84
2023/03/06 04:16:05;;;;;;;15.70;4.97;;;;;;;-1.76;100.00;97307.84;2551358;29;20055;-82
2023/03/06 04:17:21;;;;;;;10.23;4.00;;;;;;;-1.80;100.00;97306.13;2550541;29;20062;-83
2023/03/06 04:18:37;;;;;;;10.05;4.35;;;;;;;-1.67;100.00;97307.00;2552607;28;20050;-83
2023/03/06 04:19:52;;;;;;;13.05;5.22;;;;;;;-1.60;100.00;97308.75;2552955;29;20110;-83
2023/03/06 04:21:08;;;;;;;11.95;4.45;;;;;;;-1.72;100.00;97309.56;2552303;29;20055;-82
2023/03/06 04:22:23;;;;;;;11.48;4.13;;;;;;;-1.61;100.00;97297.59;2551337;29;20146;-86
2023/03/06 04:23:39;;;;;;;12.88;4.80;;;;;;;-1.63;100.00;97309.59;2549850;29;20051;-82
2023/03/06 04:24:55;;;;;;;9.93;4.05;;;;;;;-2.29;100.00;97303.38;2550205;29;20091;-82
2023/03/06 04:26:10;;;;;;;12.45;3.97;;;;;;;-2.35;100.00;97297.34;2551144;29;20067;-82
2023/03/06 04:27:26;;;;;;;16.35;4.45;;;;;;;-2.25;100.00;97296.53;2541840;29;20059;-84
2023/03/06 04:28:42;;;;;;;9.05;4.47;;;;;;;-2.30;100.00;97301.66;2546255;29;20056;-83
2023/03/06 04:29:57;;;;;;;11.60;4.53;;;;;;;-2.42;100.00;97299.88;2551719;29;20051;-81
2023/03/06 04:31:13;;;;;;;12.30;4.68;;;;;;;-2.35;100.00;97302.50;2550751;29;20078;-82
2023/03/06 04:32:29;;;;;;;10.43;4.53;;;;;;;-2.29;100.00;97302.50;2550916;29;20051;-82
2023/03/06 04:33:44;;;;;;;9.60;3.70;;;;;;;-2.47;100.00;97298.13;2551410;29;20059;-85
2023/03/06 04:35:00;;;;;;;9.15;4.03;;;;;;;-2.53;100.00;97300.69;2552142;29;20514;-83
2023/03/06 04:36:30;;;;;;;8.45;3.97;;;;;;;-2.41;100.00;97299.03;2552322;29;20765;-85
2023/03/06 04:37:45;;;;;;;9.43;4.10;;;;;;;-2.15;100.00;97300.84;2550362;29;20074;-81
2023/03/06 04:39:01;;;;;;;13.48;4.43;;;;;;;-1.90;100.00;97297.50;2549665;29;20055;-82
2023/03/06 04:40:20;;;;;;;11.05;4.72;;;;;;;-1.72;100.00;97304.41;2552667;29;20185;-84
2023/03/06 04:41:36;;;;;;;8.52;4.43;;;;;;;-1.57;100.00;97301.03;2550918;29;20133;-83
2023/03/06 04:42:51;;;;;;;11.40;4.82;;;;;;;-1.75;100.00;97289.03;2551924;29;20498;-83
2023/03/06 04:44:07;;;;;;;9.15;4.22;;;;;;;-2.01;100.00;97289.78;2551557;29;20520;-82
2023/03/06 04:45:24;;;;;;;16.05;4.55;;;;;;;-1.93;100.00;97290.69;2551464;28;20058;-83
2023/03/06 04:46:40;;;;;;;13.25;4.90;;;;;;;-1.82;100.00;97288.16;2550717;29;20098;-86
2023/03/06 04:47:56;;;;;;;13.48;4.45;;;;;;;-1.81;100.00;97289.00;2550648;29;20055;-83
2023/03/06 04:49:11;;;;;;;12.80;4.30;;;;;;;-1.90;100.00;97288.13;2550149;29;20128;-82
2023/03/06 04:50:31;;;;;;;12.20;4.80;;;;;;;-2.14;100.00;97282.06;2550198;29;20047;-86
2023/03/06 04:51:46;;;;;;;14.70;4.82;;;;;;;-2.02;100.00;97282.94;2552366;29;20127;-84
2023/03/06 04:53:03;;;;;;;13.27;4.93;;;;;;;-1.99;100.00;97282.97;2552032;29;20136;-83
2023/03/06 04:54:19;;;;;;;14.65;4.93;;;;;;;-2.05;100.00;97281.22;2553084;29;20063;-81
2023/03/06 04:55:35;;;;;;;16.45;5.28;;;;;;;-2.02;100.00;97282.94;2550800;29;20087;-81
2023/03/06 04:56:50;;;;;;;10.10;4.00;;;;;;;-2.05;100.00;97282.94;2552008;29;20054;-85
2023/03/06 04:58:06;;;;;;;12.10;4.60;;;;;;;-2.04;100.00;97279.53;2550499;29;20056;-82
2023/03/06 04:59:22;;;;;;;13.73;4.63;;;;;;;-2.27;100.00;97276.03;2552417;29;20055;-81
2023/03/06 05:00:37;;;;;;;10.32;4.32;;;;;;;-1.98;100.00;97276.97;2550548;29;20060;-81
2023/03/06 05:01:54;;;;;;;9.93;4.47;;;;;;;-2.26;100.00;97271.75;2551813;29;20950;-82
2023/03/06 05:03:11;;;;;;;11.65;4.45;;;;;;;-2.23;100.00;97268.34;2551191;29;20079;-81
2023/03/06 05:04:26;;;;;;;12.38;4.82;;;;;;;-2.20;100.00;97269.22;2551744;29;20055;-81
2023/03/06 05:05:42;;;;;;;13.05;4.80;;;;;;;-2.13;100.00;97275.22;2552606;28;20127;-84
2023/03/06 05:06:58;;;;;;;12.35;4.53;;;;;;;-2.13;100.00;97270.09;2550589;29;20055;-83
2023/03/06 05:08:15;;;;;;;11.93;4.25;;;;;;;-2.35;100.00;97272.56;2551843;29;20047;-83
2023/03/06 05:09:33;;;;;;;10.60;4.55;;;;;;;-2.12;100.00;97269.25;2551441;29;20055;-82
2023/03/06 05:10:54;;;;;;;12.30;4.65;;;;;;;-2.17;100.00;97270.91;2551862;29;20055;-81
2023/03/06 05:12:09;;;;;;;10.32;4.38;;;;;;;-2.13;100.00;97268.38;2552149;29;20158;-82
2023/03/06 05:13:26;;;;;;;11.35;4.72;;;;;;;-2.24;100.00;97267.47;2551269;29;20055;-86
2023/03/06 05:14:43;;;;;;;13.60;5.35;;;;;;;-2.29;100.00;97272.59;2550666;29;20057;-83
2023/03/06 05:16:04;;;;;;;15.05;4.93;;;;;;;-2.18;100.00;97269.22;2551263;29;20479;-83
2023/03/06 05:17:19;;;;;;;9.52;5.10;;;;;;;-2.23;100.00;97271.78;2552028;29;20055;-85
2023/03/06 05:18:35;;;;;;;10.50;5.13;;;;;;;-2.17;100.00;97270.91;2552643;29;20067;-82
2023/03/06 05:19:51;;;;;;;12.90;4.63;;;;;;;-2.18;100.00;97276.91;2551570;29;20327;-82
2023/03/06 05:21:06;;;;;;;10.27;4.20;;;;;;;-2.18;100.00;97275.22;2550632;29;20051;-87
2023/03/06 05:22:22;;;;;;;11.05;4.50;;;;;;;-2.31;100.00;97271.72;2549981;29;20070;-82
2023/03/06 05:23:38;;;;;;;12.70;4.72;;;;;;;-2.26;100.00;97266.63;2551233;29;20054;-82
2023/03/06 05:24:54;;;;;;;14.55;5.90;;;;;;;-2.25;100.00;97263.19;2550999;29;20047;-83
2023/03/06 05:26:12;;;;;;;14.57;6.03;;;;;;;-2.18;100.00;97267.50;2551732;29;20838;-82
2023/03/06 05:27:27;;;;;;;15.95;5.85;;;;;;;-2.42;100.00;97265.72;2552323;29;20211;-83
2023/03/06 05:28:43;;;;;;;15.00;6.07;;;;;;;-2.17;100.00;97266.66;2552230;29;20059;-82
2023/03/06 05:29:59;;;;;;;17.20;6.07;;;;;;;-2.28;100.00;97264.06;2551425;29;20134;-83
2023/03/06 05:31:15;;;;;;;14.20;5.90;;;;;;;-2.31;100.00;97260.63;2551800;29;20446;-82
2023/03/06 05:32:31;;;;;;;12.82;4.72;;;;;;;-2.38;100.00;97261.44;2549934;29;20487;-83
2023/03/06 05:33:46;;;;;;;14.57;4.88;;;;;;;-2.46;100.00;97264.84;2549452;28;20056;-82
2023/03/06 05:35:03;;;;;;;14.13;5.22;;;;;;;-2.22;100.00;97263.22;2550701;29;20055;-82
2023/03/06 05:36:19;;;;;;;14.63;5.22;;;;;;;-2.08;100.00;97273.53;2550752;29;20050;-82
2023/03/06 05:37:35;;;;;;;10.63;4.93;;;;;;;-2.23;100.00;97264.09;2550134;29;20106;-87
2023/03/06 05:38:50;;;;;;;13.52;4.80;;;;;;;-2.21;100.00;97262.38;2549818;29;20517;-83
2023/03/06 05:40:08;;;;;;;11.57;5.10;;;;;;;-2.05;100.00;97265.00;2551690;28;20463;-83
2023/03/06 05:41:24;;;;;;;15.75;4.93;;;;;;;-2.06;100.00;97270.97;2550828;29;20056;-82
2023/03/06 05:42:39;;;;;;;13.85;4.82;;;;;;;-2.02;100.00;97265.00;2551369;29;20051;-86
2023/03/06 05:43:55;;;;;;;14.15;5.07;;;;;;;-1.91;100.00;97263.31;2551263;29;20052;-84
2023/03/06 05:45:11;;;;;;;13.00;5.10;;;;;;;-2.25;100.00;97262.34;2550016;29;20098;-83
2023/03/06 05:46:27;;;;;;;11.40;4.78;;;;;;;-2.21;100.00;97261.50;2549853;29;20047;-82
2023/03/06 05:47:42;;;;;;;13.27;6.00;;;;;;;-2.07;100.00;97256.44;2550971;29;20526;-82
2023/03/06 05:48:58;;;;;;;12.30;4.55;;;;;;;-2.15;100.00;97262.38;2552060;29;20051;-83
2023/03/06 05:50:14;;;;;;;11.98;4.88;;;;;;;-2.09;100.00;97258.16;2552504;28;20103;-84
2023/03/06 05:51:30;;;;;;;14.77;5.20;;;;;;;-2.14;100.00;97255.56;2549874;29;21011;-82
2023/03/06 05:52:46;;;;;;;12.63;5.15;;;;;;;-2.16;100.00;97258.13;2549472;29;20511;-82
2023/03/06 05:54:01;;;;;;;12.45;4.57;;;;;;;-2.23;100.00;97258.97;2549337;29;20051;-82
2023/03/06 05:55:19;;;;;;;13.02;5.22;;;;;;;-1.97;100.00;97255.59;2550740;29;20475;-82